createdAt,value
2017-12-17T00:01:40.993Z,6.00
2017-12-17T00:04:08.550Z,6.00
2017-12-17T00:06:36.070Z,6.00
2017-12-17T00:09:03.585Z,5.90
2017-12-17T00:11:31.124Z,5.90
2017-12-17T00:13:58.683Z,5.90
2017-12-17T00:16:26.230Z,6.00
2017-12-17T00:18:53.748Z,6.00
2017-12-17T00:21:22.036Z,5.90
2017-12-17T00:23:49.536Z,5.90
2017-12-17T00:26:17.056Z,5.90
2017-12-17T00:28:44.614Z,6.00
2017-12-17T00:31:12.136Z,6.00
2017-12-17T00:33:39.637Z,6.00
2017-12-17T00:36:07.136Z,5.90
2017-12-17T00:38:34.657Z,5.90
2017-12-17T00:41:03.009Z,5.90
2017-12-17T00:43:31.302Z,5.90
2017-12-17T00:45:58.796Z,5.90
2017-12-17T00:48:26.325Z,5.90
2017-12-17T00:50:54.617Z,6.00
2017-12-17T00:53:22.152Z,5.90
2017-12-17T00:55:49.661Z,5.90
2017-12-17T00:58:17.184Z,6.00
2017-12-17T01:00:44.963Z,6.10
2017-12-17T01:03:13.257Z,6.00
2017-12-17T01:05:41.530Z,6.00
2017-12-17T01:08:09.831Z,6.00
2017-12-17T01:10:38.113Z,6.00
2017-12-17T01:13:05.648Z,5.90
2017-12-17T01:15:34.289Z,5.90
2017-12-17T01:18:01.840Z,6.00
2017-12-17T01:20:30.126Z,5.90
2017-12-17T01:22:57.657Z,5.90
2017-12-17T01:25:25.570Z,5.90
2017-12-17T01:27:53.864Z,5.80
2017-12-17T01:30:22.862Z,6.00
2017-12-17T01:32:50.780Z,6.00
2017-12-17T01:35:19.057Z,6.00
2017-12-17T01:37:47.391Z,6.00
2017-12-17T01:40:15.673Z,6.10
2017-12-17T01:42:43.965Z,6.00
2017-12-17T01:45:12.249Z,6.10
2017-12-17T01:47:39.788Z,7.70
2017-12-17T01:50:07.689Z,6.10
2017-12-17T01:52:35.984Z,6.10
2017-12-17T01:55:04.255Z,6.10
2017-12-17T01:57:32.531Z,6.10
2017-12-17T02:00:00.889Z,6.10
2017-12-17T02:02:29.248Z,6.10
2017-12-17T02:04:57.516Z,6.10
2017-12-17T02:07:25.024Z,6.20
2017-12-17T02:09:52.561Z,6.10
2017-12-17T02:12:20.070Z,6.20
2017-12-17T02:14:48.357Z,6.10
2017-12-17T02:17:15.899Z,6.10
2017-12-17T02:19:44.194Z,6.10
2017-12-17T02:22:11.717Z,6.20
2017-12-17T02:24:39.256Z,6.20
2017-12-17T02:27:06.789Z,6.10
2017-12-17T02:29:34.330Z,6.10
2017-12-17T02:32:02.236Z,6.20
2017-12-17T02:34:29.779Z,6.20
2017-12-17T02:36:57.285Z,6.20
2017-12-17T02:39:25.472Z,6.10
2017-12-17T02:41:53.749Z,6.10
2017-12-17T02:44:21.284Z,6.10
2017-12-17T02:46:48.797Z,6.10
2017-12-17T02:49:16.336Z,6.10
2017-12-17T02:51:44.624Z,6.10
2017-12-17T02:54:12.154Z,6.20
2017-12-17T02:56:39.996Z,6.20
2017-12-17T02:59:07.532Z,6.20
2017-12-17T03:01:35.041Z,6.20
2017-12-17T03:04:02.559Z,6.20
2017-12-17T03:06:30.835Z,6.20
2017-12-17T03:08:58.374Z,6.10
2017-12-17T03:11:26.621Z,6.10
2017-12-17T03:13:54.900Z,6.10
2017-12-17T03:16:23.036Z,6.20
2017-12-17T03:18:51.313Z,6.20
2017-12-17T03:21:18.873Z,6.10
2017-12-17T03:23:46.381Z,6.20
2017-12-17T03:26:14.683Z,6.10
2017-12-17T03:28:42.202Z,6.10
2017-12-17T03:31:09.745Z,6.20
2017-12-17T03:33:37.268Z,6.10
2017-12-17T03:36:05.070Z,6.20
2017-12-17T03:38:32.572Z,6.20
2017-12-17T03:41:00.109Z,6.20
2017-12-17T03:43:27.611Z,6.10
2017-12-17T03:45:55.133Z,6.10
2017-12-17T03:48:23.814Z,6.10
2017-12-17T03:50:51.336Z,6.10
2017-12-17T03:53:18.854Z,6.10
2017-12-17T03:55:46.380Z,6.10
2017-12-17T03:58:13.876Z,6.00
2017-12-17T04:00:41.409Z,6.00
2017-12-17T04:03:08.939Z,6.00
2017-12-17T04:05:36.471Z,5.90
2017-12-17T04:08:03.986Z,5.90
2017-12-17T04:10:31.532Z,5.90
2017-12-17T04:12:59.437Z,5.90
2017-12-17T04:15:26.969Z,5.90
2017-12-17T04:17:54.471Z,5.80
2017-12-17T04:20:22.007Z,5.70
2017-12-17T04:22:50.286Z,5.70
2017-12-17T04:25:17.822Z,5.80
2017-12-17T04:27:45.729Z,6.00
2017-12-17T04:30:13.230Z,6.10
2017-12-17T04:32:40.755Z,6.10
2017-12-17T04:35:08.266Z,6.00
2017-12-17T04:37:36.192Z,6.00
2017-12-17T04:40:03.701Z,6.10
2017-12-17T04:42:31.235Z,6.10
2017-12-17T04:44:58.732Z,6.00
2017-12-17T04:47:26.254Z,6.10
2017-12-17T04:49:54.162Z,6.00
2017-12-17T04:52:22.077Z,6.00
2017-12-17T04:54:49.603Z,6.00
2017-12-17T04:57:17.126Z,6.00
2017-12-17T04:59:44.635Z,6.00
2017-12-17T05:02:12.172Z,6.00
2017-12-17T05:04:39.682Z,6.00
2017-12-17T05:07:07.218Z,6.00
2017-12-17T05:09:34.740Z,6.00
2017-12-17T05:12:02.260Z,6.00
2017-12-17T05:14:29.765Z,6.00
2017-12-17T05:16:57.306Z,6.00
2017-12-17T05:19:24.833Z,6.00
2017-12-17T05:21:52.373Z,6.10
2017-12-17T05:24:19.885Z,6.10
2017-12-17T05:26:47.926Z,6.10
2017-12-17T05:29:15.829Z,6.00
2017-12-17T05:31:43.366Z,5.90
2017-12-17T05:34:10.888Z,5.90
2017-12-17T05:36:38.418Z,6.00
2017-12-17T05:39:05.920Z,6.00
2017-12-17T05:41:34.356Z,6.10
2017-12-17T05:44:01.873Z,6.00
2017-12-17T05:46:30.150Z,6.00
2017-12-17T05:48:58.444Z,5.90
2017-12-17T05:51:25.979Z,5.90
2017-12-17T05:53:53.543Z,6.00
2017-12-17T05:56:21.526Z,6.00
2017-12-17T05:58:49.060Z,6.10
2017-12-17T06:01:16.572Z,6.00
2017-12-17T06:03:44.098Z,6.00
2017-12-17T06:06:11.611Z,5.90
2017-12-17T06:08:39.145Z,6.00
2017-12-17T06:11:06.921Z,5.90
2017-12-17T06:13:35.370Z,5.80
2017-12-17T06:16:02.876Z,5.80
2017-12-17T06:18:31.190Z,5.70
2017-12-17T06:20:58.714Z,5.70
2017-12-17T06:23:27.014Z,5.70
2017-12-17T06:25:54.515Z,5.70
2017-12-17T06:28:22.044Z,5.70
2017-12-17T06:30:49.555Z,5.80
2017-12-17T06:33:17.086Z,5.80
2017-12-17T06:35:45.718Z,5.90
2017-12-17T06:38:13.774Z,5.80
2017-12-17T06:40:41.309Z,5.90
2017-12-17T06:43:08.836Z,5.90
2017-12-17T06:45:36.346Z,5.90
2017-12-17T06:48:03.877Z,5.80
2017-12-17T06:50:31.377Z,5.70
2017-12-17T06:52:58.885Z,5.80
2017-12-17T06:55:26.421Z,5.90
2017-12-17T06:57:53.945Z,5.80
2017-12-17T07:00:21.477Z,5.90
2017-12-17T07:02:49.205Z,5.90
2017-12-17T07:05:16.760Z,5.90
2017-12-17T07:07:45.281Z,5.90
2017-12-17T07:10:13.224Z,5.70
2017-12-17T07:12:40.754Z,5.70
2017-12-17T07:15:08.276Z,5.70
2017-12-17T07:17:35.788Z,5.80
2017-12-17T07:20:04.101Z,5.90
2017-12-17T07:22:32.752Z,5.90
2017-12-17T07:25:00.273Z,5.90
2017-12-17T07:27:27.789Z,6.00
2017-12-17T07:29:55.357Z,5.80
2017-12-17T07:32:22.861Z,5.90
2017-12-17T07:34:50.584Z,5.90
2017-12-17T07:37:18.083Z,5.90
2017-12-17T07:39:45.609Z,5.90
2017-12-17T07:42:13.353Z,5.90
2017-12-17T07:44:40.873Z,5.90
2017-12-17T07:47:08.385Z,5.90
2017-12-17T07:49:35.917Z,5.90
2017-12-17T07:52:04.189Z,5.90
2017-12-17T07:54:31.726Z,5.90
2017-12-17T07:56:59.242Z,5.90
2017-12-17T07:59:26.770Z,5.80
2017-12-17T08:01:55.045Z,5.80
2017-12-17T08:04:23.329Z,5.80
2017-12-17T08:06:51.614Z,5.80
2017-12-17T08:09:19.126Z,5.80
2017-12-17T08:11:46.657Z,5.70
2017-12-17T08:14:14.161Z,5.80
2017-12-17T08:16:41.688Z,5.70
2017-12-17T08:19:09.197Z,5.70
2017-12-17T08:21:36.717Z,5.60
2017-12-17T08:24:04.276Z,5.60
2017-12-17T08:26:31.803Z,5.70
2017-12-17T08:28:59.326Z,5.70
2017-12-17T08:31:27.823Z,5.80
2017-12-17T08:33:56.104Z,5.80
2017-12-17T08:36:23.624Z,5.90
2017-12-17T08:38:51.716Z,5.80
2017-12-17T08:41:19.263Z,5.90
2017-12-17T08:43:47.181Z,5.80
2017-12-17T08:46:14.978Z,5.80
2017-12-17T08:48:43.256Z,5.90
2017-12-17T08:51:11.612Z,5.90
2017-12-17T08:53:39.843Z,5.90
2017-12-17T08:56:08.134Z,6.00
2017-12-17T08:58:36.406Z,5.90
2017-12-17T09:01:04.849Z,5.90
2017-12-17T09:03:33.136Z,5.90
2017-12-17T09:06:02.254Z,5.90
2017-12-17T09:08:29.766Z,6.00
2017-12-17T09:10:58.847Z,6.00
2017-12-17T09:13:26.697Z,6.00
2017-12-17T09:15:54.984Z,5.80
2017-12-17T09:18:23.273Z,5.90
2017-12-17T09:20:51.547Z,5.90
2017-12-17T09:23:20.704Z,6.00
2017-12-17T09:25:48.215Z,6.10
2017-12-17T09:28:16.502Z,6.00
2017-12-17T09:30:44.782Z,5.90
2017-12-17T09:33:12.370Z,6.00
2017-12-17T09:35:40.265Z,6.00
2017-12-17T09:38:08.556Z,5.80
2017-12-17T09:40:36.833Z,5.60
2017-12-17T09:43:05.122Z,5.60
2017-12-17T09:45:33.513Z,5.50
2017-12-17T09:48:01.821Z,5.50
2017-12-17T09:50:30.471Z,5.60
2017-12-17T09:52:58.816Z,5.40
2017-12-17T09:55:27.165Z,5.50
2017-12-17T09:57:55.456Z,5.70
2017-12-17T10:00:23.723Z,5.80
2017-12-17T10:02:52.770Z,5.80
2017-12-17T10:05:21.188Z,5.60
2017-12-17T10:07:48.721Z,5.60
2017-12-17T10:10:17.110Z,5.70
2017-12-17T10:12:45.428Z,5.50
2017-12-17T10:15:13.710Z,5.40
2017-12-17T10:17:42.013Z,5.60
2017-12-17T10:20:10.292Z,5.60
2017-12-17T10:22:38.587Z,5.80
2017-12-17T10:25:06.096Z,5.30
2017-12-17T10:27:34.026Z,5.20
2017-12-17T10:30:03.024Z,5.30
2017-12-17T10:32:30.557Z,5.00
2017-12-17T10:34:58.066Z,4.90
2017-12-17T10:37:25.973Z,5.20
2017-12-17T10:39:54.284Z,5.50
2017-12-17T10:42:22.571Z,5.60
2017-12-17T10:44:51.424Z,5.60
2017-12-17T10:47:19.730Z,5.90
2017-12-17T10:49:47.648Z,5.90
2017-12-17T10:52:15.945Z,6.10
2017-12-17T10:54:44.254Z,6.20
2017-12-17T10:57:12.540Z,5.80
2017-12-17T10:59:40.905Z,5.70
2017-12-17T11:02:09.918Z,6.10
2017-12-17T11:04:37.843Z,6.10
2017-12-17T11:07:06.867Z,6.20
2017-12-17T11:09:35.013Z,6.80
2017-12-17T11:12:05.772Z,7.20
2017-12-17T11:14:33.704Z,7.80
2017-12-17T11:17:01.980Z,8.30
2017-12-17T11:19:29.690Z,8.20
2017-12-17T11:21:57.742Z,7.90
2017-12-17T11:24:26.046Z,7.50
2017-12-17T11:26:54.966Z,7.40
2017-12-17T11:29:22.500Z,6.80
2017-12-17T11:31:50.807Z,6.70
2017-12-17T11:34:19.142Z,6.70
2017-12-17T11:36:47.407Z,6.80
2017-12-17T11:39:16.605Z,6.80
2017-12-17T11:41:45.568Z,6.40
2017-12-17T11:44:13.886Z,6.10
2017-12-17T11:46:42.179Z,6.10
2017-12-17T11:49:10.478Z,6.20
2017-12-17T11:51:38.000Z,6.20
2017-12-17T11:54:05.969Z,6.00
2017-12-17T11:56:34.280Z,5.80
2017-12-17T11:59:03.017Z,5.80
2017-12-17T12:01:30.937Z,5.80
2017-12-17T12:03:59.216Z,5.80
2017-12-17T12:06:27.596Z,6.00
2017-12-17T12:08:56.007Z,6.20
2017-12-17T12:11:24.303Z,6.30
2017-12-17T12:13:52.585Z,6.30
2017-12-17T12:16:21.659Z,6.00
2017-12-17T12:18:49.457Z,6.10
2017-12-17T12:21:17.803Z,6.00
2017-12-17T12:23:46.079Z,6.20
2017-12-17T12:26:14.436Z,6.30
2017-12-17T12:28:42.713Z,6.30
2017-12-17T12:31:11.022Z,6.40
2017-12-17T12:33:39.357Z,6.40
2017-12-17T12:36:07.656Z,6.30
2017-12-17T12:38:35.990Z,6.40
2017-12-17T12:41:04.356Z,6.40
2017-12-17T12:43:32.954Z,6.20
2017-12-17T12:46:01.249Z,6.10
2017-12-17T12:48:29.532Z,5.80
2017-12-17T12:50:57.852Z,6.00
2017-12-17T12:53:26.271Z,6.10
2017-12-17T12:55:55.365Z,6.00
2017-12-17T12:58:22.923Z,5.80
2017-12-17T13:00:51.216Z,5.60
2017-12-17T13:03:19.494Z,5.60
2017-12-17T13:05:47.781Z,5.80
2017-12-17T13:08:16.057Z,6.00
2017-12-17T13:10:44.398Z,6.10
2017-12-17T13:13:12.851Z,6.10
2017-12-17T13:15:41.160Z,6.00
2017-12-17T13:18:10.139Z,6.00
2017-12-17T13:20:38.124Z,6.00
2017-12-17T13:23:06.418Z,5.70
2017-12-17T13:25:34.715Z,5.80
2017-12-17T13:28:03.005Z,5.90
2017-12-17T13:30:31.336Z,6.00
2017-12-17T13:33:00.446Z,6.00
2017-12-17T13:35:27.957Z,6.00
2017-12-17T13:37:56.248Z,5.90
2017-12-17T13:40:25.462Z,5.80
2017-12-17T13:42:53.493Z,5.80
2017-12-17T13:45:21.430Z,6.00
2017-12-17T13:47:49.717Z,6.00
2017-12-17T13:50:17.989Z,5.70
2017-12-17T13:52:46.308Z,5.70
2017-12-17T13:55:14.844Z,5.80
2017-12-17T13:57:43.170Z,5.60
2017-12-17T14:00:11.436Z,5.70
2017-12-17T14:02:39.791Z,5.80
2017-12-17T14:05:08.113Z,5.80
2017-12-17T14:07:36.405Z,5.80
2017-12-17T14:10:05.120Z,5.90
2017-12-17T14:12:33.052Z,6.00
2017-12-17T14:15:01.487Z,6.00
2017-12-17T14:17:29.950Z,5.80
2017-12-17T14:19:58.282Z,5.70
2017-12-17T14:22:26.633Z,5.80
2017-12-17T14:24:54.912Z,6.00
2017-12-17T14:27:23.281Z,6.00
2017-12-17T14:29:51.610Z,5.80
2017-12-17T14:32:19.904Z,5.90
2017-12-17T14:34:48.182Z,5.80
2017-12-17T14:37:16.692Z,5.40
2017-12-17T14:39:45.058Z,5.60
2017-12-17T14:42:13.439Z,5.60
2017-12-17T14:44:41.777Z,5.70
2017-12-17T14:47:10.122Z,5.80
2017-12-17T14:49:39.244Z,5.90
2017-12-17T14:52:07.593Z,6.00
2017-12-17T14:54:36.369Z,6.10
2017-12-17T14:57:04.696Z,6.10
2017-12-17T14:59:32.988Z,6.00
2017-12-17T15:02:01.283Z,6.10
2017-12-17T15:04:29.635Z,6.10
2017-12-17T15:06:58.197Z,6.00
2017-12-17T15:09:26.503Z,6.10
2017-12-17T15:11:54.824Z,6.10
2017-12-17T15:14:23.480Z,6.20
2017-12-17T15:16:51.430Z,6.10
2017-12-17T15:19:19.731Z,6.10
2017-12-17T15:21:48.128Z,6.00
2017-12-17T15:24:16.434Z,6.10
2017-12-17T15:26:44.760Z,6.10
2017-12-17T15:29:13.609Z,6.10
2017-12-17T15:31:42.530Z,6.10
2017-12-17T15:34:10.071Z,6.10
2017-12-17T15:36:42.224Z,6.00
2017-12-17T15:39:11.599Z,6.00
2017-12-17T15:41:39.163Z,6.00
2017-12-17T15:44:07.944Z,6.00
2017-12-17T15:46:37.052Z,6.00
2017-12-17T15:49:05.360Z,5.90
2017-12-17T15:51:33.693Z,5.90
2017-12-17T15:54:02.043Z,5.80
2017-12-17T15:56:30.318Z,5.90
2017-12-17T15:58:58.618Z,5.50
2017-12-17T16:01:26.882Z,5.60
2017-12-17T16:03:54.419Z,5.80
2017-12-17T16:06:22.340Z,5.80
2017-12-17T16:08:50.680Z,5.90
2017-12-17T16:11:19.028Z,5.80
2017-12-17T16:13:47.356Z,5.90
2017-12-17T16:16:15.698Z,5.90
2017-12-17T16:18:44.032Z,6.00
2017-12-17T16:21:12.384Z,6.00
2017-12-17T16:23:40.747Z,5.80
2017-12-17T16:26:09.220Z,5.70
2017-12-17T16:28:37.569Z,5.80
2017-12-17T16:31:05.924Z,5.80
2017-12-17T16:33:34.257Z,5.70
2017-12-17T16:36:04.126Z,5.80
2017-12-17T16:38:33.854Z,5.80
2017-12-17T16:41:03.138Z,5.90
2017-12-17T16:43:31.470Z,5.80
2017-12-17T16:45:59.820Z,5.80
2017-12-17T16:48:28.142Z,5.90
2017-12-17T16:50:57.389Z,5.90
2017-12-17T16:53:24.926Z,5.90
2017-12-17T16:55:53.254Z,5.60
2017-12-17T16:58:21.619Z,5.40
2017-12-17T17:00:49.601Z,5.30
2017-12-17T17:03:17.496Z,5.40
2017-12-17T17:05:45.517Z,5.50
2017-12-17T17:08:13.867Z,5.70
2017-12-17T17:10:43.020Z,5.80
2017-12-17T17:13:10.604Z,5.80
2017-12-17T17:15:38.954Z,5.90
2017-12-17T17:18:09.022Z,6.00
2017-12-17T17:20:37.068Z,6.00
2017-12-17T17:23:05.455Z,6.00
2017-12-17T17:25:34.453Z,5.90
2017-12-17T17:28:03.860Z,6.00
2017-12-17T17:30:31.821Z,5.80
2017-12-17T17:33:00.226Z,5.80
2017-12-17T17:35:28.728Z,5.90
2017-12-17T17:37:56.711Z,5.90
2017-12-17T17:40:25.046Z,6.00
2017-12-17T17:42:53.392Z,6.00
2017-12-17T17:45:21.935Z,6.00
2017-12-17T17:47:50.551Z,6.00
2017-12-17T17:50:19.747Z,6.00
2017-12-17T17:52:47.342Z,8.40
2017-12-17T17:55:15.876Z,6.00
2017-12-17T17:57:44.646Z,6.00
2017-12-17T18:00:13.862Z,6.00
2017-12-17T18:02:41.423Z,6.00
2017-12-17T18:05:09.749Z,6.00
2017-12-17T18:07:38.296Z,6.00
2017-12-17T18:10:06.622Z,5.90
2017-12-17T18:12:35.606Z,6.00
2017-12-17T18:15:03.964Z,6.00
2017-12-17T18:17:32.656Z,6.00
2017-12-17T18:20:00.385Z,6.00
2017-12-17T18:22:28.299Z,6.00
2017-12-17T18:24:56.692Z,5.90
2017-12-17T18:27:25.685Z,5.90
2017-12-17T18:29:55.014Z,5.90
2017-12-17T18:32:23.656Z,6.00
2017-12-17T18:34:52.589Z,5.90
2017-12-17T18:37:20.991Z,5.90
2017-12-17T18:39:48.886Z,6.00
2017-12-17T18:42:16.433Z,6.00
2017-12-17T18:44:48.721Z,5.90
2017-12-17T18:47:17.148Z,5.90
2017-12-17T18:49:45.680Z,5.90
2017-12-17T18:52:14.006Z,5.90
2017-12-17T18:54:43.153Z,6.00
2017-12-17T18:57:11.575Z,5.90
2017-12-17T18:59:39.876Z,6.00
2017-12-17T19:02:07.431Z,5.90
2017-12-17T19:04:35.778Z,5.80
2017-12-17T19:07:04.096Z,5.90
2017-12-17T19:09:32.542Z,6.00
2017-12-17T19:12:00.871Z,6.00
2017-12-17T19:14:29.279Z,6.10
2017-12-17T19:16:57.630Z,6.10
2017-12-17T19:19:25.992Z,6.00
2017-12-17T19:21:54.328Z,6.00
2017-12-17T19:24:23.311Z,6.00
2017-12-17T19:26:51.790Z,6.20
2017-12-17T19:29:19.784Z,5.80
2017-12-17T19:31:47.755Z,5.80
2017-12-17T19:34:16.105Z,6.00
2017-12-17T19:36:44.430Z,5.90
2017-12-17T19:39:12.789Z,5.80
2017-12-17T19:41:41.975Z,5.80
2017-12-17T19:44:09.540Z,5.90
2017-12-17T19:46:37.898Z,5.90
2017-12-17T19:49:06.248Z,6.00
2017-12-17T19:51:34.600Z,6.00
2017-12-17T19:54:03.794Z,5.90
2017-12-17T19:56:31.893Z,5.90
2017-12-17T19:59:00.258Z,5.80
2017-12-17T20:01:28.456Z,6.00
2017-12-17T20:03:57.672Z,5.90
2017-12-17T20:06:26.828Z,5.90
2017-12-17T20:08:54.400Z,5.90
2017-12-17T20:11:22.765Z,5.90
2017-12-17T20:13:51.929Z,5.90
2017-12-17T20:16:19.514Z,6.00
2017-12-17T20:18:48.496Z,6.00
2017-12-17T20:21:16.498Z,6.00
2017-12-17T20:23:44.470Z,6.00
2017-12-17T20:26:13.735Z,6.00
2017-12-17T20:28:41.316Z,5.80
2017-12-17T20:31:10.143Z,5.80
2017-12-17T20:33:39.458Z,5.90
2017-12-17T20:36:10.027Z,5.60
2017-12-17T20:38:38.411Z,5.70
2017-12-17T20:41:06.006Z,5.80
2017-12-17T20:43:33.963Z,5.80
2017-12-17T20:46:02.304Z,5.80
2017-12-17T20:48:32.496Z,5.80
2017-12-17T20:51:00.952Z,5.70
2017-12-17T20:53:29.718Z,5.60
2017-12-17T20:55:57.304Z,5.50
2017-12-17T20:58:25.382Z,5.30
2017-12-17T21:00:53.743Z,5.20
2017-12-17T21:03:22.122Z,6.90
2017-12-17T21:05:50.477Z,5.30
2017-12-17T21:08:20.333Z,5.10
2017-12-17T21:10:49.353Z,4.80
2017-12-17T21:13:16.931Z,5.00
2017-12-17T21:15:45.263Z,5.00
2017-12-17T21:18:15.379Z,4.70
2017-12-17T21:20:44.444Z,4.70
2017-12-17T21:23:12.039Z,4.90
2017-12-17T21:25:39.998Z,5.00
2017-12-17T21:28:08.367Z,4.80
2017-12-17T21:30:37.240Z,4.50
2017-12-17T21:33:05.907Z,4.50
2017-12-17T21:35:33.485Z,4.50
2017-12-17T21:38:03.382Z,4.50
2017-12-17T21:40:31.398Z,4.70
2017-12-17T21:42:59.760Z,4.90
2017-12-17T21:45:28.948Z,4.90
2017-12-17T21:47:56.537Z,4.80
2017-12-17T21:50:24.877Z,5.00
2017-12-17T21:52:53.731Z,5.10
2017-12-17T21:55:21.413Z,5.30
2017-12-17T21:57:50.046Z,5.30
2017-12-17T22:00:18.009Z,5.10
2017-12-17T22:02:46.388Z,5.20
2017-12-17T22:05:14.754Z,5.30
2017-12-17T22:07:43.700Z,5.30
2017-12-17T22:10:11.292Z,5.40
2017-12-17T22:12:38.856Z,5.40
2017-12-17T22:15:06.863Z,5.50
2017-12-17T22:17:36.092Z,5.50
2017-12-17T22:20:03.674Z,5.10
2017-12-17T22:22:31.677Z,4.80
2017-12-17T22:25:00.110Z,4.90
2017-12-17T22:27:28.455Z,5.10
2017-12-17T22:29:56.802Z,4.70
2017-12-17T22:32:25.783Z,4.70
2017-12-17T22:34:54.139Z,4.80
2017-12-17T22:37:22.304Z,4.70
2017-12-17T22:39:51.087Z,4.80
2017-12-17T22:42:19.288Z,4.60
2017-12-17T22:44:47.672Z,4.50
2017-12-17T22:47:16.005Z,4.50
2017-12-17T22:49:44.483Z,4.40
2017-12-17T22:52:12.807Z,4.60
2017-12-17T22:54:41.880Z,4.60
2017-12-17T22:57:09.862Z,4.50
2017-12-17T22:59:38.200Z,4.40
2017-12-17T23:02:06.735Z,4.20
2017-12-17T23:04:35.090Z,4.40
2017-12-17T23:07:04.159Z,4.30
2017-12-17T23:09:32.566Z,4.30
2017-12-17T23:12:00.089Z,4.20
2017-12-17T23:14:28.388Z,4.30
2017-12-17T23:16:56.729Z,4.60
2017-12-17T23:19:25.174Z,4.70
2017-12-17T23:21:54.473Z,4.70
2017-12-17T23:24:22.947Z,4.60
2017-12-17T23:26:50.489Z,4.50
2017-12-17T23:29:18.393Z,4.70
2017-12-17T23:31:47.809Z,4.80
2017-12-17T23:34:17.703Z,4.60
2017-12-17T23:36:46.009Z,4.60
2017-12-17T23:39:14.301Z,4.80
2017-12-17T23:41:41.832Z,5.00
2017-12-17T23:44:09.746Z,5.10
2017-12-17T23:46:38.045Z,5.20
2017-12-17T23:49:07.170Z,5.00
2017-12-17T23:51:36.229Z,4.90
2017-12-17T23:54:04.501Z,4.90
2017-12-17T23:56:32.814Z,5.50
2017-12-17T23:59:01.086Z,5.10
